Limon, CO

3:14 AM MDT on July 31, 2014 (GMT -0600)
Limon, CO (KCOLIMON3) Elev 5361 ft | 39.27 °N, 103.68 °W | Change Station

Current weather conditions updated 7 minutes ago

Overcast
Overcast
56.2 °F
Feels Like 56.2 °F
N
0.0
Wind Variable Wind from SW
Gusts 0.0 mph

Today is forecast to be Much Warmer than yesterday.

Today
High -- | Low -- °F
--% Chance of Precip.
Yesterday
High -- | Low -- °F
Precip. -- in
5:54 AM 8:07 PM
Waxing Crescent, 17% visible
Pressure 30.18 in
Visibility 10.0 miles
Clouds Overcast 9000 ft
Dew Point 55 °F
Humidity 95%
Rainfall 0.00 in
Snow Depth Not available.
UV 0 out of 12
Pollen .80 out of 12
Air Quality Not available.
Flu Activity Not available.
METAR KLIC 310855Z AUTO 00000KT 10SM OVC090 13/13 A3032 RMK AO2 SLP218 T01330128 56010

More Conditions Fewer Conditions

Pressure 30.18 in
Visibility 10.0 miles
Clouds Overcast 9000 ft
Dew Point 55 °F
Humidity 95%
Rainfall 0.00 in
Snow Depth Not available.
UV 0 out of 12
Pollen .80 out of 12
Air Quality Not available.
Flu Activity Not available.
METAR KLIC 310855Z AUTO 00000KT 10SM OVC090 13/13 A3032 RMK AO2 SLP218 T01330128 56010

More Conditions Fewer Conditions

10-Day Weather Forecast

Almanac

Astronomy

Jul. 31, 2014 Rise Set
Actual Time 5:54 AM MDT 8:07 PM MDT
Civil Twilight 5:24 AM MDT 8:37 PM MDT
Nautical Twilight 4:47 AM MDT 9:14 PM MDT
Astronomical Twilight 4:06 AM MDT 9:54 PM MDT
Moon 10:21 AM MDT 10:23 PM MDT
Length of Visible Light 15h 13m
Length of Day
14h 13m
Tomorrow will be 1m 54s shorter.
Waxing Crescent, 17% of the Moon is Illuminated
Today
Waxing Crescent
Aug 3
First Quarter
Aug 10
Full
Aug 17
Last Quarter
Aug 25
New

Today's Extremes

State Highs State Lows

Community

WunderPhotos

Upload Photos

1,739,284 photos uploaded!

Nearby

Snow Depth

Station Depth Elevation
Echo Lake 0 in 10600 ft
University Camp 0 in 10300 ft
Jackwhacker Gulch 1 in 10960 ft
Berthoud Summit 1 in 11300 ft
Copeland Lake 0 in 8600 ft

Earthquake Activity

City Distance Mag. Time & Date
No recent earthquake activity has been reported nearby.
Minimum magnitude displayed is 2.5.

Coastal Water Temperatures

Place Temperature
No Stations Reporting

Nearby Weather Stations

Station Location Temp. Dew Point Humidity Wind Precip. Elev Updated Type
Limon, CO, Limon, CO 56.2 °F 55 °F 95% SW  at  0.0 mph 0.00 in / hr 5361 ft 3:06 AM MDT Normal
Limon, Limon, CO 57.7 °F 57 °F 95% North  at  0.0 mph 0.00 in / hr 5394 ft 3:10 AM MDT Normal
Hugo, Hugo, CO 58.4 °F 54 °F 85% NE  at  0.0 mph 0.00 in / hr 5089 ft 3:14 AM MDT Rapid Fire
MesoWest AGATE , Agate, CO 57 °F - - North  at  - 0.00 in / hr 5458 ft 11:45 PM MDT MADIS
MEREO WFR Simla 1, Simla, CO 55.2 °F 54 °F 95% SSE  at  0.0 mph 0.00 in / hr 6014 ft 3:14 AM MDT Rapid Fire
MesoWest CLIFRD , Boyero, CO 58 °F - - North  at  - 0.00 in / hr 4854 ft 1:15 AM MDT MADIS
Higby Estates, Monument, CO 50.9 °F 48 °F 88% SE  at  7.8 mph 0.00 in / hr 9245 ft 3:14 AM MDT Rapid Fire

Show More Stations Show Fewer Stations